Time;durP1;ratioP1;P1;durP2;ratioP2;P2;SDS_P1;SDS_P2;PMS_P1;PMS_P2;Temp;Humidity;BMP_temperature;BMP_pressure;BME280_temperature;BME280_humidity;BME280_pressure;Samples;Min_cycle;Max_cycle;Signal;HPM_P1;HPM_P2
2023/08/13 00:04:20;;;;;;;7.75;6.28;;;24.50;99.90;;;;;;10091700;28;20066;-67
2023/08/13 00:09:11;;;;;;;9.05;5.60;;;24.30;99.90;;;;;;10097227;28;20068;-66
2023/08/13 00:14:02;;;;;;;8.70;5.88;;;24.30;99.90;;;;;;10080152;28;20048;-66
2023/08/13 00:18:53;;;;;;;7.18;4.78;;;24.30;99.90;;;;;;10099008;28;20056;-67
2023/08/13 00:23:43;;;;;;;8.65;4.72;;;24.40;99.90;;;;;;10098159;28;20410;-67
2023/08/13 00:28:34;;;;;;;6.80;5.50;;;24.40;99.90;;;;;;10096393;28;20036;-67
2023/08/13 00:33:24;;;;;;;7.32;5.10;;;24.30;99.90;;;;;;10097291;28;20025;-67
2023/08/13 00:38:15;;;;;;;7.90;5.70;;;24.30;99.90;;;;;;10096984;28;20044;-67
2023/08/13 00:43:06;;;;;;;7.53;5.57;;;24.30;99.90;;;;;;10078456;28;20032;-67
2023/08/13 00:47:56;;;;;;;6.07;4.70;;;24.30;99.90;;;;;;10096768;28;20040;-67
2023/08/13 00:52:47;;;;;;;7.43;5.13;;;24.20;99.90;;;;;;10096385;28;20033;-67
2023/08/13 00:57:38;;;;;;;6.95;5.63;;;24.20;99.90;;;;;;10096477;28;20025;-67
2023/08/13 01:02:29;;;;;;;7.68;5.60;;;24.10;99.90;;;;;;10096542;28;20100;-68
2023/08/13 01:07:44;;;;;;;6.18;4.90;;;24.10;99.90;;;;;;10095689;28;20123;-67
2023/08/13 01:12:44;;;;;;;6.95;5.20;;;24.10;99.90;;;;;;10085286;28;20052;-67
2023/08/13 01:17:36;;;;;;;6.97;5.10;;;24.10;99.90;;;;;;10097219;28;20040;-67
2023/08/13 01:22:27;;;;;;;6.47;4.70;;;24.20;99.90;;;;;;10095315;28;20048;-67
2023/08/13 01:27:39;;;;;;;7.68;4.70;;;24.10;99.90;;;;;;10095863;28;20021;-67
2023/08/13 01:32:37;;;;;;;9.02;4.38;;;24.00;99.90;;;;;;10095628;28;20040;-67
2023/08/13 01:37:28;;;;;;;6.05;5.00;;;24.10;99.90;;;;;;10095847;28;20032;-67
2023/08/13 01:42:19;;;;;;;5.68;3.90;;;24.10;99.90;;;;;;10095701;28;20040;-67
2023/08/13 01:47:10;;;;;;;5.35;4.13;;;24.00;99.90;;;;;;10095822;28;20025;-67
2023/08/13 01:52:00;;;;;;;9.45;4.53;;;23.90;99.90;;;;;;10101682;28;20394;-67
2023/08/13 01:56:51;;;;;;;8.30;4.60;;;24.00;99.90;;;;;;10100375;28;20021;-67
2023/08/13 02:01:42;;;;;;;8.15;4.18;;;23.90;99.90;;;;;;10102106;28;20055;-66
2023/08/13 02:06:35;;;;;;;6.07;4.25;;;23.90;99.90;;;;;;10102350;28;20013;-67
2023/08/13 02:11:25;;;;;;;7.45;4.00;;;23.90;99.90;;;;;;10102493;28;20380;-67
2023/08/13 02:16:16;;;;;;;6.50;4.63;;;23.90;99.90;;;;;;10102764;28;20036;-67
2023/08/13 02:21:07;;;;;;;7.10;4.22;;;23.90;99.90;;;;;;10101606;28;20199;-66
2023/08/13 02:25:57;;;;;;;7.30;4.25;;;23.90;99.90;;;;;;10101105;28;20029;-67
2023/08/13 02:30:51;;;;;;;6.88;4.00;;;23.90;99.90;;;;;;10100886;28;20037;-67
2023/08/13 02:35:42;;;;;;;5.87;4.40;;;23.90;99.90;;;;;;10101123;28;20054;-67
2023/08/13 02:40:33;;;;;;;5.60;3.92;;;23.90;99.90;;;;;;10101354;28;20021;-66
2023/08/13 02:45:23;;;;;;;6.38;4.63;;;23.90;99.90;;;;;;10100691;28;20044;-67
2023/08/13 02:50:14;;;;;;;7.05;4.38;;;23.80;99.90;;;;;;10093499;28;20041;-67
2023/08/13 02:55:05;;;;;;;9.65;4.63;;;23.70;99.90;;;;;;10100639;28;20123;-67
2023/08/13 02:59:56;;;;;;;6.45;5.18;;;23.80;99.90;;;;;;10099976;28;20140;-67
2023/08/13 03:04:47;;;;;;;9.77;4.82;;;23.70;99.90;;;;;;10088891;28;20114;-67
2023/08/13 03:09:37;;;;;;;8.43;4.43;;;23.70;99.90;;;;;;10082247;28;20514;-67
2023/08/13 03:14:28;;;;;;;6.70;3.97;;;23.70;99.90;;;;;;10093656;28;20041;-67
2023/08/13 03:19:19;;;;;;;9.43;5.13;;;23.80;99.90;;;;;;10093168;28;20110;-68
2023/08/13 03:24:09;;;;;;;5.93;4.28;;;23.70;99.90;;;;;;10094950;28;20074;-67
2023/08/13 03:29:00;;;;;;;8.82;5.07;;;23.70;99.90;;;;;;10099386;28;20130;-67
2023/08/13 03:33:50;;;;;;;8.20;5.00;;;23.70;99.90;;;;;;10099242;28;20025;-67
2023/08/13 03:38:41;;;;;;;7.30;4.50;;;23.70;99.90;;;;;;10098326;28;20073;-67
2023/08/13 03:43:32;;;;;;;5.68;4.45;;;23.70;99.90;;;;;;10098770;28;20064;-67
2023/08/13 03:48:22;;;;;;;5.78;4.00;;;23.70;99.90;;;;;;10086818;28;20044;-67
2023/08/13 03:53:13;;;;;;;8.63;4.22;;;23.70;99.90;;;;;;10070054;28;20040;-67
2023/08/13 03:58:04;;;;;;;4.18;3.55;;;23.70;99.90;;;;;;10069910;28;20033;-67
2023/08/13 04:02:55;;;;;;;5.80;4.25;;;23.60;99.90;;;;;;10097583;28;20099;-67
2023/08/13 04:07:45;;;;;;;7.32;4.03;;;23.60;99.90;;;;;;10097357;28;20111;-67
2023/08/13 04:12:36;;;;;;;7.07;4.57;;;23.60;99.90;;;;;;10086082;28;20222;-67
2023/08/13 04:17:27;;;;;;;6.70;4.32;;;23.60;99.90;;;;;;10080082;28;20036;-67
2023/08/13 04:22:17;;;;;;;6.32;4.45;;;23.50;99.90;;;;;;10097354;28;20033;-66
2023/08/13 04:27:08;;;;;;;6.88;4.40;;;23.60;99.90;;;;;;10097741;28;20033;-66
2023/08/13 04:31:58;;;;;;;7.38;4.50;;;23.60;99.90;;;;;;10095961;28;20032;-66
2023/08/13 04:36:50;;;;;;;6.65;4.03;;;23.60;99.90;;;;;;10096661;28;20107;-67
2023/08/13 04:41:40;;;;;;;7.07;4.45;;;23.50;99.90;;;;;;10094518;28;20036;-67
2023/08/13 04:46:32;;;;;;;4.68;3.53;;;23.50;99.90;;;;;;10096323;28;20027;-67
2023/08/13 04:51:22;;;;;;;9.13;4.43;;;23.50;99.90;;;;;;10095947;28;20037;-67
2023/08/13 04:56:13;;;;;;;6.20;4.00;;;23.50;99.90;;;;;;10096551;28;20021;-67
2023/08/13 05:01:04;;;;;;;5.57;3.03;;;23.50;99.90;;;;;;10092620;28;20025;-68
2023/08/13 05:05:55;;;;;;;6.18;3.05;;;23.40;99.90;;;;;;10075202;28;20040;-67
2023/08/13 05:10:46;;;;;;;5.20;2.97;;;23.50;99.90;;;;;;10087146;28;20134;-67
2023/08/13 05:15:36;;;;;;;4.07;2.95;;;23.40;99.90;;;;;;10090757;28;20029;-67
2023/08/13 05:20:27;;;;;;;6.95;3.50;;;23.40;99.90;;;;;;10094289;28;20036;-67
2023/08/13 05:25:17;;;;;;;3.95;2.85;;;23.40;99.90;;;;;;10099422;28;20024;-67
2023/08/13 05:30:09;;;;;;;10.50;3.55;;;23.40;99.90;;;;;;10103399;28;20033;-67
2023/08/13 05:35:00;;;;;;;4.18;2.88;;;23.40;99.90;;;;;;10103540;28;20116;-67
2023/08/13 05:39:51;;;;;;;4.38;3.17;;;23.40;99.90;;;;;;10097404;28;20128;-67
2023/08/13 05:44:42;;;;;;;4.70;3.28;;;23.50;99.90;;;;;;10103497;28;20140;-67
2023/08/13 05:49:32;;;;;;;3.88;2.90;;;23.50;99.90;;;;;;10103128;28;20120;-67
2023/08/13 05:54:23;;;;;;;4.70;2.90;;;23.50;99.90;;;;;;10102898;28;21049;-67
2023/08/13 05:59:14;;;;;;;5.80;3.30;;;23.50;99.90;;;;;;10102516;28;20025;-67
2023/08/13 06:04:05;;;;;;;4.05;2.97;;;23.50;99.90;;;;;;10103154;28;20477;-67
2023/08/13 06:08:55;;;;;;;4.75;3.60;;;23.50;99.90;;;;;;10100984;28;20072;-67
2023/08/13 06:13:46;;;;;;;5.95;3.15;;;23.50;99.90;;;;;;10102807;28;20061;-67
2023/08/13 06:18:37;;;;;;;6.60;3.55;;;23.60;99.90;;;;;;10102524;28;20025;-66
2023/08/13 06:23:27;;;;;;;6.28;3.63;;;23.60;99.90;;;;;;10101959;28;20020;-68
2023/08/13 06:28:18;;;;;;;3.92;3.08;;;23.60;99.90;;;;;;10101428;28;20037;-68
2023/08/13 06:33:09;;;;;;;3.83;3.10;;;23.60;99.90;;;;;;10102282;28;20094;-68
2023/08/13 06:38:00;;;;;;;4.97;3.20;;;23.60;99.90;;;;;;10082888;28;20543;-67
2023/08/13 06:42:50;;;;;;;4.50;2.90;;;23.70;99.90;;;;;;10083211;28;20033;-67
2023/08/13 06:47:41;;;;;;;4.07;3.03;;;23.60;99.90;;;;;;10101048;28;20483;-67
2023/08/13 06:52:32;;;;;;;3.40;2.55;;;23.80;99.90;;;;;;10100337;28;20048;-67
2023/08/13 06:57:22;;;;;;;7.50;4.68;;;23.80;99.90;;;;;;10100862;28;20126;-67
2023/08/13 07:02:13;;;;;;;5.50;3.00;;;23.90;99.90;;;;;;10100866;28;20108;-67
2023/08/13 07:07:04;;;;;;;5.35;3.13;;;23.90;99.90;;;;;;10099113;28;20040;-67
2023/08/13 07:11:54;;;;;;;4.60;3.00;;;23.80;99.90;;;;;;10100667;28;20044;-67
2023/08/13 07:16:46;;;;;;;3.15;2.58;;;23.90;99.90;;;;;;10101186;28;20025;-67
2023/08/13 07:21:36;;;;;;;7.28;2.60;;;23.90;99.90;;;;;;10100019;28;20087;-67
2023/08/13 07:26:28;;;;;;;4.93;2.90;;;23.90;99.90;;;;;;10098942;28;20301;-67
2023/08/13 07:31:19;;;;;;;3.10;2.20;;;24.00;99.90;;;;;;10098714;28;20037;-67
2023/08/13 07:36:10;;;;;;;3.25;2.42;;;23.90;99.90;;;;;;10081190;28;20036;-67
2023/08/13 07:41:03;;;;;;;3.95;2.42;;;24.00;99.90;;;;;;10098612;28;20394;-67
2023/08/13 07:45:53;;;;;;;4.25;2.55;;;24.00;99.90;;;;;;10098754;28;20021;-67
2023/08/13 07:50:44;;;;;;;5.25;2.40;;;24.10;99.90;;;;;;10098336;28;20407;-67
2023/08/13 07:55:35;;;;;;;5.65;2.45;;;24.10;99.90;;;;;;10084225;28;20428;-67
2023/08/13 08:00:26;;;;;;;2.83;2.20;;;24.10;99.90;;;;;;10070916;28;20029;-68
2023/08/13 08:05:17;;;;;;;4.07;2.35;;;24.10;99.90;;;;;;10094373;28;20067;-67
2023/08/13 08:10:08;;;;;;;3.83;2.60;;;24.30;99.90;;;;;;10095475;28;20074;-68
2023/08/13 08:14:58;;;;;;;2.58;1.85;;;24.30;99.90;;;;;;10096399;28;20060;-67
2023/08/13 08:19:49;;;;;;;4.85;2.38;;;24.30;99.90;;;;;;10097270;28;20111;-68
2023/08/13 08:24:40;;;;;;;2.33;2.10;;;24.30;99.90;;;;;;10098052;28;20510;-68
2023/08/13 08:29:31;;;;;;;2.67;1.95;;;24.50;99.90;;;;;;10091994;28;20371;-69
2023/08/13 08:34:21;;;;;;;4.20;2.30;;;24.50;99.90;;;;;;10097645;28;20028;-68
2023/08/13 08:39:12;;;;;;;3.20;2.42;;;24.60;99.90;;;;;;10097274;28;20506;-68
2023/08/13 08:44:05;;;;;;;5.28;2.10;;;24.70;99.90;;;;;;10097781;28;20024;-67
2023/08/13 08:49:01;;;;;;;5.72;2.70;;;24.80;99.90;;;;;;10096617;28;20032;-68
2023/08/13 08:53:53;;;;;;;3.30;2.10;;;24.60;99.90;;;;;;10096694;28;20025;-67
2023/08/13 08:58:44;;;;;;;3.67;1.58;;;24.70;99.90;;;;;;10097883;28;20017;-68
2023/08/13 09:03:35;;;;;;;4.00;1.67;;;24.80;99.90;;;;;;10104922;28;20449;-67
2023/08/13 09:08:26;;;;;;;5.15;2.78;;;24.80;99.90;;;;;;10103160;28;20021;-68
2023/08/13 09:13:16;;;;;;;5.97;2.63;;;24.80;99.90;;;;;;10106318;28;20215;-68
2023/08/13 09:18:08;;;;;;;2.63;1.85;;;24.80;99.90;;;;;;10105446;28;20055;-68
2023/08/13 09:23:00;;;;;;;3.42;1.88;;;24.80;99.90;;;;;;10100899;28;20578;-68
2023/08/13 09:27:51;;;;;;;3.58;2.10;;;24.90;99.90;;;;;;10103802;28;20106;-69
2023/08/13 09:32:41;;;;;;;3.47;2.10;;;24.90;99.90;;;;;;10103610;28;20269;-68
2023/08/13 09:37:32;;;;;;;5.25;2.72;;;24.90;99.90;;;;;;10103404;28;20029;-68
2023/08/13 09:42:23;;;;;;;3.80;2.42;;;25.00;99.90;;;;;;10103456;28;20021;-68
2023/08/13 09:47:17;;;;;;;2.67;1.80;;;25.00;99.90;;;;;;10103269;28;20487;-67
2023/08/13 09:52:11;;;;;;;3.50;1.87;;;25.10;99.90;;;;;;10084735;28;20047;-67
2023/08/13 09:57:03;;;;;;;2.57;1.70;;;25.10;99.90;;;;;;10103362;28;20021;-67
2023/08/13 10:01:55;;;;;;;3.55;2.83;;;25.10;99.90;;;;;;10102191;28;20399;-67
2023/08/13 10:06:47;;;;;;;7.57;3.45;;;25.00;99.90;;;;;;10101751;28;20475;-67
2023/08/13 10:11:37;;;;;;;3.00;2.28;;;24.90;99.90;;;;;;10101910;28;20052;-67
2023/08/13 10:16:28;;;;;;;4.40;2.42;;;24.90;99.90;;;;;;10103230;28;20413;-67
2023/08/13 10:21:33;;;;;;;5.40;2.85;;;24.90;99.90;;;;;;10101807;28;20033;-67
2023/08/13 10:26:24;;;;;;;4.25;2.30;;;24.90;99.90;;;;;;10101932;28;20044;-68
2023/08/13 10:31:27;;;;;;;3.58;1.95;;;24.90;99.90;;;;;;10101693;28;20476;-67
2023/08/13 10:36:18;;;;;;;4.75;2.70;;;24.90;99.90;;;;;;10101356;28;20277;-66
2023/08/13 10:41:09;;;;;;;4.03;2.17;;;25.00;99.90;;;;;;10101224;28;20258;-67
2023/08/13 10:46:03;;;;;;;6.03;4.25;;;25.10;99.90;;;;;;10101019;28;20028;-66
2023/08/13 10:50:58;;;;;;;4.73;2.80;;;25.10;99.90;;;;;;10100320;28;20378;-67
2023/08/13 10:55:49;;;;;;;6.00;2.70;;;25.10;99.90;;;;;;10100401;28;20029;-65
2023/08/13 11:00:42;;;;;;;6.22;2.53;;;25.20;99.90;;;;;;10100233;28;20060;-66
2023/08/13 11:05:33;;;;;;;4.15;2.60;;;25.30;99.90;;;;;;10077521;28;20095;-67
2023/08/13 11:10:24;;;;;;;3.38;2.42;;;25.40;99.90;;;;;;10075205;28;20045;-67
2023/08/13 11:15:15;;;;;;;5.70;2.60;;;25.40;99.90;;;;;;10088611;28;20032;-67
2023/08/13 11:20:07;;;;;;;3.75;2.40;;;25.40;99.90;;;;;;10096170;28;20542;-67
2023/08/13 11:24:58;;;;;;;4.43;2.47;;;25.40;99.90;;;;;;10098367;28;20048;-67
2023/08/13 11:29:48;;;;;;;5.70;2.70;;;25.50;99.90;;;;;;10080816;28;20037;-67
2023/08/13 11:34:40;;;;;;;5.82;3.05;;;25.60;99.90;;;;;;10099440;28;20021;-67
2023/08/13 11:39:30;;;;;;;3.67;2.72;;;25.70;99.90;;;;;;10099220;28;20029;-67
2023/08/13 11:44:21;;;;;;;8.05;3.22;;;25.70;99.90;;;;;;10098665;28;20025;-67
2023/08/13 11:49:16;;;;;;;5.50;3.10;;;25.80;99.90;;;;;;10098218;28;20534;-67
2023/08/13 11:54:09;;;;;;;2.72;1.98;;;25.80;99.90;;;;;;10098379;28;20017;-66
2023/08/13 11:58:59;;;;;;;6.75;2.30;;;25.90;99.90;;;;;;10098268;28;20400;-68
2023/08/13 12:03:50;;;;;;;4.50;2.72;;;26.00;99.90;;;;;;10098714;28;20105;-67
2023/08/13 12:08:46;;;;;;;3.35;2.30;;;26.10;99.90;;;;;;10096851;28;20032;-67
2023/08/13 12:13:45;;;;;;;4.35;1.63;;;26.00;99.90;;;;;;10090132;28;20135;-66
2023/08/13 12:18:35;;;;;;;3.85;1.65;;;26.00;99.90;;;;;;10097771;28;20391;-66
2023/08/13 12:23:26;;;;;;;2.42;1.95;;;26.00;99.90;;;;;;10079273;28;20024;-67
2023/08/13 12:28:17;;;;;;;3.50;1.60;;;26.20;99.90;;;;;;10096664;28;20091;-67
2023/08/13 12:33:07;;;;;;;2.95;1.63;;;26.30;99.90;;;;;;10096014;28;20514;-67
2023/08/13 12:37:58;;;;;;;1.65;1.50;;;26.50;99.90;;;;;;10096775;28;20027;-67
2023/08/13 12:42:49;;;;;;;3.00;1.63;;;26.60;99.90;;;;;;10096087;28;20033;-68
2023/08/13 12:47:39;;;;;;;2.60;1.50;;;26.70;99.90;;;;;;10096364;28;20131;-68
2023/08/13 12:52:30;;;;;;;5.38;1.70;;;26.80;99.90;;;;;;10095979;28;20045;-67
2023/08/13 12:57:21;;;;;;;3.42;1.90;;;26.70;99.90;;;;;;10095245;28;20044;-67
2023/08/13 13:02:11;;;;;;;2.08;1.70;;;26.70;99.90;;;;;;10096196;28;20032;-67
2023/08/13 13:07:02;;;;;;;3.13;1.67;;;26.90;99.90;;;;;;10095529;28;20036;-67
2023/08/13 13:11:53;;;;;;;3.42;1.27;;;26.90;99.90;;;;;;10095864;28;20128;-67
2023/08/13 13:16:43;;;;;;;5.35;1.83;;;27.00;99.90;;;;;;10096702;28;20487;-67
2023/08/13 13:21:34;;;;;;;3.72;1.52;;;27.10;99.90;;;;;;10096094;28;20064;-68
2023/08/13 13:26:25;;;;;;;6.18;3.45;;;27.20;99.90;;;;;;10086738;28;20029;-68
2023/08/13 13:31:16;;;;;;;3.80;2.40;;;27.40;99.90;;;;;;10079012;28;20124;-67
2023/08/13 13:36:07;;;;;;;2.72;1.48;;;27.50;99.90;;;;;;10088033;28;20101;-68
2023/08/13 13:40:58;;;;;;;2.38;1.55;;;27.60;99.90;;;;;;10087506;28;20042;-66
2023/08/13 13:45:48;;;;;;;1.65;1.20;;;27.70;99.90;;;;;;10098064;28;20032;-68
2023/08/13 13:50:39;;;;;;;2.47;1.10;;;27.60;99.90;;;;;;10102068;28;20044;-67
2023/08/13 13:55:30;;;;;;;2.30;1.45;;;27.70;99.90;;;;;;10103129;28;20032;-67
2023/08/13 14:00:21;;;;;;;3.38;1.60;;;28.00;99.90;;;;;;10101885;28;20025;-67
2023/08/13 14:05:13;;;;;;;2.10;1.40;;;28.20;99.90;;;;;;10102724;28;20029;-67
2023/08/13 14:10:04;;;;;;;2.38;1.50;;;28.20;99.90;;;;;;10101377;28;20029;-67
2023/08/13 14:14:54;;;;;;;3.72;1.50;;;28.20;99.90;;;;;;10104021;28;20425;-68
2023/08/13 14:19:45;;;;;;;2.00;1.30;;;28.00;99.90;;;;;;10093042;28;20120;-68
2023/08/13 14:24:36;;;;;;;2.53;1.27;;;28.00;99.90;;;;;;10082981;28;20116;-67
2023/08/13 14:29:26;;;;;;;1.73;1.40;;;28.10;99.90;;;;;;10101092;28;20176;-67
2023/08/13 14:34:17;;;;;;;1.80;1.40;;;28.20;99.90;;;;;;10082801;28;20441;-67
2023/08/13 14:39:08;;;;;;;5.57;2.13;;;28.30;99.90;;;;;;10100300;28;20466;-68
2023/08/13 14:43:59;;;;;;;2.50;1.17;;;28.60;99.90;;;;;;10100901;28;20009;-67
2023/08/13 14:48:50;;;;;;;3.83;1.92;;;28.80;99.90;;;;;;10082443;28;20501;-67
2023/08/13 14:53:41;;;;;;;3.17;1.70;;;28.90;99.90;;;;;;10100269;28;20100;-67
2023/08/13 14:58:32;;;;;;;2.97;1.38;;;29.00;99.90;;;;;;10099464;28;20037;-67
2023/08/13 15:03:24;;;;;;;5.57;1.23;;;29.20;99.90;;;;;;10079932;28;20029;-68
2023/08/13 15:08:16;;;;;;;2.78;1.40;;;29.00;99.90;;;;;;10098362;28;20021;-68
2023/08/13 15:13:07;;;;;;;4.60;1.58;;;29.00;99.90;;;;;;10082353;28;20507;-68
2023/08/13 15:17:58;;;;;;;2.78;1.50;;;28.90;99.90;;;;;;10100093;28;20029;-67
2023/08/13 15:22:49;;;;;;;1.80;1.45;;;28.80;99.90;;;;;;10081553;28;20016;-67
2023/08/13 15:27:40;;;;;;;2.15;1.27;;;28.70;99.90;;;;;;10080924;28;20392;-68
2023/08/13 15:32:30;;;;;;;4.15;1.50;;;28.70;99.90;;;;;;10098119;28;20309;-67
2023/08/13 15:37:21;;;;;;;2.00;1.25;;;28.60;99.90;;;;;;10080492;28;20040;-67
2023/08/13 15:42:12;;;;;;;1.67;1.48;;;28.50;99.90;;;;;;10099114;28;20452;-67
2023/08/13 15:47:06;;;;;;;2.47;1.50;;;28.50;99.90;;;;;;10090757;28;20025;-67
2023/08/13 15:51:57;;;;;;;2.17;1.65;;;28.40;99.90;;;;;;10079830;28;20443;-67
2023/08/13 15:56:48;;;;;;;2.13;1.48;;;28.30;99.90;;;;;;10069110;28;20021;-67
2023/08/13 16:01:39;;;;;;;2.95;1.85;;;28.30;99.90;;;;;;10080688;28;20502;-67
2023/08/13 16:06:29;;;;;;;2.83;1.27;;;28.30;99.90;;;;;;10067546;28;20053;-67
2023/08/13 16:11:20;;;;;;;1.50;1.30;;;28.20;99.90;;;;;;10091927;28;20080;-68
2023/08/13 16:16:11;;;;;;;2.13;1.25;;;28.30;99.90;;;;;;10080301;28;20506;-67
2023/08/13 16:21:02;;;;;;;1.75;1.05;;;28.40;99.90;;;;;;10096539;28;20384;-68
2023/08/13 16:25:52;;;;;;;1.80;1.20;;;28.40;99.90;;;;;;10094521;28;20180;-67
2023/08/13 16:30:43;;;;;;;1.83;1.10;;;28.40;99.90;;;;;;10096305;28;20055;-69
2023/08/13 16:35:34;;;;;;;1.73;1.13;;;28.80;99.90;;;;;;10096540;28;20205;-69
2023/08/13 16:40:24;;;;;;;2.72;1.70;;;28.80;99.90;;;;;;10095714;28;20443;-68
2023/08/13 16:45:16;;;;;;;2.30;1.40;;;29.20;99.90;;;;;;10096891;28;20411;-68
2023/08/13 16:50:07;;;;;;;3.17;1.65;;;29.30;99.90;;;;;;10078212;28;20037;-68
2023/08/13 16:54:58;;;;;;;6.97;2.05;;;29.30;99.90;;;;;;10096809;28;20132;-69
2023/08/13 16:59:48;;;;;;;2.53;1.30;;;29.40;99.90;;;;;;10077900;28;20031;-67
2023/08/13 17:04:39;;;;;;;3.60;1.65;;;29.30;99.90;;;;;;10096007;28;20013;-67
2023/08/13 17:09:30;;;;;;;3.53;1.90;;;29.30;99.90;;;;;;10101321;28;20036;-67
2023/08/13 17:14:21;;;;;;;4.72;2.08;;;29.70;99.90;;;;;;10096577;28;20107;-68
2023/08/13 17:19:11;;;;;;;4.25;1.88;;;29.90;99.90;;;;;;10096681;28;20025;-68
2023/08/13 17:24:04;;;;;;;4.70;2.22;;;29.90;99.90;;;;;;10099732;28;20101;-68
2023/08/13 17:28:55;;;;;;;3.80;1.30;;;30.10;99.90;;;;;;10102702;28;20119;-68
2023/08/13 17:33:45;;;;;;;3.75;1.98;;;29.70;99.90;;;;;;10084886;28;20111;-67
2023/08/13 17:38:36;;;;;;;1.48;1.27;;;29.50;99.90;;;;;;10102663;28;20483;-68
2023/08/13 17:43:27;;;;;;;2.42;1.42;;;29.30;99.90;;;;;;10085143;28;20550;-67
2023/08/13 17:48:18;;;;;;;4.18;1.60;;;28.90;99.90;;;;;;10102229;28;20041;-67
2023/08/13 17:53:10;;;;;;;3.63;2.30;;;28.80;99.90;;;;;;10093822;28;20117;-68
2023/08/13 17:58:02;;;;;;;4.57;2.72;;;28.60;99.90;;;;;;10102293;28;20510;-68
2023/08/13 18:02:53;;;;;;;5.35;2.33;;;28.60;99.90;;;;;;10084673;28;20443;-68
2023/08/13 18:07:43;;;;;;;2.92;2.15;;;28.50;99.90;;;;;;10100357;28;20029;-68
2023/08/13 18:12:34;;;;;;;4.95;3.33;;;28.50;99.90;;;;;;10103002;28;20335;-68
2023/08/13 18:17:25;;;;;;;6.50;3.13;;;28.40;99.90;;;;;;10102841;28;20021;-68
2023/08/13 18:22:16;;;;;;;10.75;3.85;;;28.30;99.90;;;;;;10100964;28;20037;-68
2023/08/13 18:27:06;;;;;;;7.88;3.95;;;28.30;99.90;;;;;;10082774;28;20024;-68
2023/08/13 18:31:58;;;;;;;4.13;2.47;;;28.30;99.90;;;;;;10104178;28;20048;-67
2023/08/13 18:36:49;;;;;;;6.43;3.08;;;28.20;99.90;;;;;;10083021;28;20036;-67
2023/08/13 18:41:39;;;;;;;3.25;2.38;;;28.20;99.90;;;;;;10101037;28;20029;-67
2023/08/13 18:46:30;;;;;;;3.38;1.88;;;28.10;99.90;;;;;;10100237;28;20021;-67
2023/08/13 18:51:21;;;;;;;6.07;1.80;;;27.90;99.90;;;;;;10100815;28;20074;-68
2023/08/13 18:56:15;;;;;;;2.65;1.80;;;27.90;99.90;;;;;;10095453;28;20391;-76
2023/08/13 19:01:05;;;;;;;4.68;1.58;;;27.80;99.90;;;;;;10073212;28;20414;-73
2023/08/13 19:06:00;;;;;;;3.28;1.60;;;27.80;99.90;;;;;;10080631;28;20032;-70
2023/08/13 19:10:50;;;;;;;3.83;2.35;;;27.70;99.90;;;;;;10079535;28;20067;-69
2023/08/13 19:15:42;;;;;;;2.47;1.67;;;27.70;99.90;;;;;;10094066;28;20021;-66
2023/08/13 19:20:33;;;;;;;3.78;2.65;;;27.70;99.90;;;;;;10082352;28;20025;-68
2023/08/13 19:25:24;;;;;;;3.38;2.40;;;27.60;99.90;;;;;;10093475;28;20025;-69
2023/08/13 19:30:14;;;;;;;4.43;2.53;;;27.50;99.90;;;;;;10074761;28;20079;-67
2023/08/13 19:35:05;;;;;;;5.22;2.42;;;27.60;99.90;;;;;;10082491;28;20195;-67
2023/08/13 19:39:56;;;;;;;3.55;2.40;;;27.60;99.90;;;;;;10073474;28;20036;-67
2023/08/13 19:44:47;;;;;;;3.85;2.20;;;27.60;99.90;;;;;;10092437;28;20028;-67
2023/08/13 19:49:38;;;;;;;7.53;4.93;;;27.50;99.90;;;;;;10087303;28;20033;-67
2023/08/13 19:54:29;;;;;;;4.55;3.03;;;27.40;99.90;;;;;;10095703;28;20079;-67
2023/08/13 19:59:19;;;;;;;4.95;2.90;;;27.50;99.90;;;;;;10095852;28;20029;-67
2023/08/13 20:04:10;;;;;;;4.85;3.67;;;27.50;99.90;;;;;;10097315;28;20116;-68
2023/08/13 20:09:01;;;;;;;7.38;3.47;;;27.50;99.90;;;;;;10093133;28;20048;-67
2023/08/13 20:13:51;;;;;;;9.75;4.15;;;27.40;99.90;;;;;;10093737;28;20086;-67
2023/08/13 20:18:42;;;;;;;8.73;4.80;;;27.40;99.90;;;;;;10090483;28;20444;-67
2023/08/13 20:23:32;;;;;;;4.72;2.80;;;27.30;99.90;;;;;;10092259;28;20509;-66
2023/08/13 20:28:23;;;;;;;5.55;2.33;;;27.10;99.90;;;;;;10086681;28;20033;-66
2023/08/13 20:33:14;;;;;;;4.65;2.40;;;27.00;99.90;;;;;;10098338;28;20041;-67
2023/08/13 20:38:04;;;;;;;4.50;2.50;;;27.00;99.90;;;;;;10076859;28;20383;-65
2023/08/13 20:42:55;;;;;;;3.15;2.45;;;26.90;99.90;;;;;;10090759;28;20243;-67
2023/08/13 20:47:45;;;;;;;4.47;2.45;;;26.90;99.90;;;;;;10078057;28;20033;-66
2023/08/13 20:52:36;;;;;;;4.38;2.13;;;26.80;99.90;;;;;;10078942;28;20112;-66
2023/08/13 20:57:28;;;;;;;3.92;2.53;;;26.80;99.90;;;;;;10087827;28;20025;-68
2023/08/13 21:02:19;;;;;;;5.57;3.15;;;26.80;99.90;;;;;;10068946;28;20116;-66
2023/08/13 21:07:10;;;;;;;3.70;2.50;;;26.80;99.90;;;;;;10072010;28;20112;-66
2023/08/13 21:12:00;;;;;;;4.07;2.50;;;26.80;99.90;;;;;;10100056;28;20106;-66
2023/08/13 21:16:51;;;;;;;4.05;2.33;;;26.80;99.90;;;;;;10093623;28;20036;-67
2023/08/13 21:21:41;;;;;;;4.07;2.50;;;26.70;99.90;;;;;;10092323;28;20122;-67
2023/08/13 21:26:34;;;;;;;3.20;2.28;;;26.80;99.90;;;;;;10092792;28;20200;-66
2023/08/13 21:31:25;;;;;;;4.00;2.40;;;26.80;99.90;;;;;;10074706;28;20037;-67
2023/08/13 21:36:15;;;;;;;6.70;2.10;;;26.70;99.90;;;;;;10091005;28;20040;-67
2023/08/13 21:41:06;;;;;;;2.83;2.17;;;26.70;99.90;;;;;;10088258;28;20437;-67
2023/08/13 21:45:56;;;;;;;3.75;2.05;;;26.70;99.90;;;;;;10095590;28;20029;-67
2023/08/13 21:50:47;;;;;;;2.83;1.88;;;26.70;99.90;;;;;;10095256;28;20041;-67
2023/08/13 21:55:38;;;;;;;4.60;2.22;;;26.60;99.90;;;;;;10095515;28;20033;-67
2023/08/13 22:00:28;;;;;;;4.35;2.63;;;26.70;99.90;;;;;;10094710;28;20082;-68
2023/08/13 22:05:19;;;;;;;6.38;3.08;;;26.60;99.90;;;;;;10095793;28;20029;-67
2023/08/13 22:10:10;;;;;;;4.95;2.53;;;26.50;99.90;;;;;;10100805;28;20029;-66
2023/08/13 22:15:00;;;;;;;4.28;2.47;;;26.50;99.90;;;;;;10104551;28;20047;-66
2023/08/13 22:19:52;;;;;;;6.78;2.58;;;26.50;99.90;;;;;;10101504;28;20017;-65
2023/08/13 22:24:44;;;;;;;5.20;2.75;;;26.50;99.90;;;;;;10101738;28;20028;-66
2023/08/13 22:29:34;;;;;;;3.70;2.35;;;26.40;99.90;;;;;;10101072;28;20039;-66
2023/08/13 22:34:25;;;;;;;4.72;2.17;;;26.40;99.90;;;;;;10097009;28;20039;-66
2023/08/13 22:39:16;;;;;;;6.15;2.42;;;26.30;99.90;;;;;;10098001;28;20106;-66
2023/08/13 22:44:07;;;;;;;3.40;2.22;;;26.30;99.90;;;;;;10101230;28;20566;-66
2023/08/13 22:48:58;;;;;;;2.30;1.63;;;26.30;99.90;;;;;;10101665;28;20407;-66
2023/08/13 22:53:51;;;;;;;5.60;3.25;;;26.20;99.90;;;;;;10101092;28;20036;-66
2023/08/13 22:58:42;;;;;;;4.55;2.42;;;26.20;99.90;;;;;;10100801;28;20025;-67
2023/08/13 23:03:32;;;;;;;4.32;2.33;;;26.10;99.90;;;;;;10082307;28;20139;-67
2023/08/13 23:08:23;;;;;;;2.92;2.03;;;26.10;99.90;;;;;;10080937;28;20045;-66
2023/08/13 23:13:14;;;;;;;2.95;1.75;;;26.10;99.90;;;;;;10101825;28;20059;-66
2023/08/13 23:18:04;;;;;;;5.20;1.90;;;26.10;99.90;;;;;;10081282;28;20031;-66
2023/08/13 23:22:55;;;;;;;4.32;2.05;;;26.20;99.90;;;;;;10099599;28;20025;-67
2023/08/13 23:27:46;;;;;;;4.85;1.90;;;26.20;99.90;;;;;;10099368;28;20020;-66
2023/08/13 23:32:37;;;;;;;3.80;2.65;;;26.20;99.90;;;;;;10098627;28;20071;-67
2023/08/13 23:37:27;;;;;;;3.78;2.08;;;26.20;99.90;;;;;;10099372;28;20101;-66
2023/08/13 23:42:18;;;;;;;5.50;2.65;;;26.00;99.90;;;;;;10099882;28;20041;-66
2023/08/13 23:47:08;;;;;;;9.40;3.25;;;25.90;99.90;;;;;;10080835;28;20074;-66
2023/08/13 23:52:00;;;;;;;5.05;2.80;;;25.90;99.90;;;;;;10098991;28;20064;-66
2023/08/13 23:56:51;;;;;;;4.85;2.33;;;25.90;99.90;;;;;;10097672;28;20027;-66
